createdAt,value
2018-12-04T00:01:11.064Z,9.70
2018-12-04T00:03:39.497Z,9.70
2018-12-04T00:06:07.942Z,9.70
2018-12-04T00:08:36.378Z,9.60
2018-12-04T00:11:04.879Z,9.60
2018-12-04T00:13:33.306Z,9.60
2018-12-04T00:16:01.787Z,9.60
2018-12-04T00:18:30.214Z,9.60
2018-12-04T00:20:58.675Z,9.60
2018-12-04T00:23:27.178Z,9.60
2018-12-04T00:25:55.638Z,9.60
2018-12-04T00:28:24.087Z,9.60
2018-12-04T00:30:52.540Z,9.60
2018-12-04T00:33:20.980Z,9.60
2018-12-04T00:35:49.435Z,9.60
2018-12-04T00:38:17.878Z,9.60
2018-12-04T00:40:46.350Z,9.60
2018-12-04T00:43:14.790Z,9.60
2018-12-04T00:45:43.243Z,9.70
2018-12-04T00:48:11.702Z,9.60
2018-12-04T00:50:40.262Z,9.70
2018-12-04T00:53:09.874Z,9.70
2018-12-04T00:55:39.795Z,9.70
2018-12-04T00:58:08.334Z,9.70
2018-12-04T01:00:36.804Z,9.70
2018-12-04T01:03:05.256Z,9.70
2018-12-04T01:05:33.710Z,9.70
2018-12-04T01:08:02.151Z,9.70
2018-12-04T01:10:30.594Z,9.70
2018-12-04T01:12:59.049Z,9.70
2018-12-04T01:15:27.489Z,9.70
2018-12-04T01:17:55.934Z,9.70
2018-12-04T01:20:24.358Z,9.80
2018-12-04T01:22:52.815Z,9.70
2018-12-04T01:25:21.239Z,9.70
2018-12-04T01:27:49.700Z,9.80
2018-12-04T01:30:18.183Z,9.70
2018-12-04T01:32:46.638Z,9.70
2018-12-04T01:35:15.072Z,9.70
2018-12-04T01:37:43.535Z,9.70
2018-12-04T01:40:12.026Z,9.70
2018-12-04T01:42:40.485Z,9.70
2018-12-04T01:45:08.982Z,9.70
2018-12-04T01:47:37.446Z,9.70
2018-12-04T01:50:05.983Z,9.70
2018-12-04T01:52:34.430Z,9.70
2018-12-04T01:55:02.891Z,9.60
2018-12-04T01:57:31.354Z,9.60
2018-12-04T01:59:59.790Z,9.50
2018-12-04T02:02:28.290Z,9.60
2018-12-04T02:04:56.781Z,9.50
2018-12-04T02:07:25.239Z,9.50
2018-12-04T02:09:53.670Z,9.40
2018-12-04T02:12:22.106Z,9.40
2018-12-04T02:14:50.550Z,9.40
2018-12-04T02:17:19.034Z,9.40
2018-12-04T02:19:47.457Z,9.40
2018-12-04T02:22:15.918Z,9.30
2018-12-04T02:24:44.352Z,9.30
2018-12-04T02:27:12.816Z,9.30
2018-12-04T02:29:41.270Z,9.30
2018-12-04T02:32:09.711Z,9.30
2018-12-04T02:34:38.192Z,9.30
2018-12-04T02:37:06.626Z,9.30
2018-12-04T02:39:35.077Z,9.40
2018-12-04T02:42:03.634Z,9.30
2018-12-04T02:44:32.079Z,9.40
2018-12-04T02:47:00.532Z,9.40
2018-12-04T02:49:29.006Z,9.40
2018-12-04T02:51:57.455Z,9.50
2018-12-04T02:54:25.903Z,9.50
2018-12-04T02:56:54.468Z,9.50
2018-12-04T02:59:22.932Z,9.50
2018-12-04T03:01:51.395Z,9.60
2018-12-04T03:04:19.851Z,9.60
2018-12-04T03:06:48.308Z,9.60
2018-12-04T03:09:16.770Z,9.50
2018-12-04T03:11:45.232Z,9.50
2018-12-04T03:14:13.687Z,9.60
2018-12-04T03:16:42.136Z,9.60
2018-12-04T03:19:10.583Z,9.60
2018-12-04T03:21:39.021Z,9.60
2018-12-04T03:24:07.487Z,9.60
2018-12-04T03:26:35.940Z,9.60
2018-12-04T03:29:04.411Z,9.60
2018-12-04T03:31:32.860Z,9.60
2018-12-04T03:34:01.327Z,9.60
2018-12-04T03:36:29.755Z,9.60
2018-12-04T03:38:58.222Z,9.60
2018-12-04T03:41:26.667Z,9.60
2018-12-04T03:43:55.337Z,9.60
2018-12-04T03:46:23.771Z,9.60
2018-12-04T03:48:52.226Z,9.50
2018-12-04T03:51:20.730Z,9.50
2018-12-04T03:53:49.162Z,9.50
2018-12-04T03:56:17.619Z,9.50
2018-12-04T03:58:46.050Z,9.50
2018-12-04T04:01:14.515Z,9.50
2018-12-04T04:03:42.943Z,9.50
2018-12-04T04:06:11.402Z,9.60
2018-12-04T04:08:39.868Z,9.60
2018-12-04T04:11:08.318Z,9.50
2018-12-04T04:13:36.757Z,9.50
2018-12-04T04:16:05.243Z,9.50
2018-12-04T04:18:33.683Z,9.50
2018-12-04T04:21:02.140Z,9.50
2018-12-04T04:23:30.587Z,9.60
2018-12-04T04:25:59.038Z,9.50
2018-12-04T04:28:27.479Z,9.50
2018-12-04T04:30:55.934Z,9.50
2018-12-04T04:33:24.370Z,9.50
2018-12-04T04:35:56.985Z,9.50
2018-12-04T04:38:25.822Z,9.50
2018-12-04T04:40:54.279Z,9.50
2018-12-04T04:43:22.700Z,9.40
2018-12-04T04:45:51.172Z,9.40
2018-12-04T04:48:19.651Z,9.30
2018-12-04T04:50:48.111Z,9.30
2018-12-04T04:53:16.556Z,9.30
2018-12-04T04:55:45.042Z,9.30
2018-12-04T04:58:13.497Z,9.30
2018-12-04T05:00:41.981Z,9.30
2018-12-04T05:03:10.420Z,9.30
2018-12-04T05:05:41.327Z,9.30
2018-12-04T05:08:09.826Z,9.30
2018-12-04T05:10:38.269Z,9.20
2018-12-04T05:13:06.727Z,9.10
2018-12-04T05:15:35.154Z,8.90
2018-12-04T05:18:03.635Z,8.80
2018-12-04T05:20:32.065Z,8.70
2018-12-04T05:23:00.523Z,8.70
2018-12-04T05:25:28.954Z,8.60
2018-12-04T05:27:57.455Z,8.50
2018-12-04T05:30:25.937Z,8.50
2018-12-04T05:32:54.378Z,8.40
2018-12-04T05:35:22.811Z,8.40
2018-12-04T05:37:51.270Z,8.30
2018-12-04T05:40:20.384Z,8.30
2018-12-04T05:42:48.194Z,8.20
2018-12-04T05:45:16.633Z,8.10
2018-12-04T05:47:45.133Z,8.10
2018-12-04T05:50:13.626Z,8.00
2018-12-04T05:52:42.069Z,7.90
2018-12-04T05:55:10.503Z,7.90
2018-12-04T05:57:38.966Z,7.90
2018-12-04T06:00:09.744Z,7.90
2018-12-04T06:02:38.483Z,7.90
2018-12-04T06:05:06.955Z,7.90
2018-12-04T06:07:35.382Z,7.80
2018-12-04T06:10:04.825Z,7.80
2018-12-04T06:12:33.247Z,7.70
2018-12-04T06:15:01.719Z,7.60
2018-12-04T06:17:30.142Z,7.60
2018-12-04T06:19:58.585Z,7.50
2018-12-04T06:22:27.071Z,7.50
2018-12-04T06:24:55.525Z,7.40
2018-12-04T06:27:23.959Z,7.30
2018-12-04T06:29:52.458Z,7.30
2018-12-04T06:32:20.891Z,7.20
2018-12-04T06:34:49.362Z,7.20
2018-12-04T06:37:17.847Z,7.20
2018-12-04T06:39:46.374Z,7.20
2018-12-04T06:42:14.818Z,7.20
2018-12-04T06:44:46.699Z,7.20
2018-12-04T06:47:11.784Z,7.20
2018-12-04T06:49:40.286Z,7.20
2018-12-04T06:52:08.746Z,7.20
2018-12-04T06:54:37.249Z,7.20
2018-12-04T06:57:05.719Z,7.20
2018-12-04T06:59:34.190Z,7.20
2018-12-04T07:02:02.630Z,7.20
2018-12-04T07:04:31.090Z,7.30
2018-12-04T07:06:59.526Z,7.30
2018-12-04T07:09:27.982Z,7.30
2018-12-04T07:12:02.318Z,7.30
2018-12-04T07:14:24.917Z,7.30
2018-12-04T07:16:53.350Z,7.30
2018-12-04T07:19:21.773Z,7.20
2018-12-04T07:21:50.249Z,7.20
2018-12-04T07:24:18.686Z,7.20
2018-12-04T07:26:47.167Z,7.20
2018-12-04T07:29:15.611Z,7.20
2018-12-04T07:31:44.070Z,7.20
2018-12-04T07:34:12.506Z,7.20
2018-12-04T07:36:41.006Z,7.20
2018-12-04T07:39:09.434Z,7.20
2018-12-04T07:41:37.890Z,7.20
2018-12-04T07:44:06.322Z,7.20
2018-12-04T07:46:34.786Z,7.20
2018-12-04T07:49:03.235Z,7.20
2018-12-04T07:51:32.808Z,7.20
2018-12-04T07:54:00.235Z,7.20
2018-12-04T07:56:28.698Z,7.20
2018-12-04T07:58:57.129Z,7.20
2018-12-04T08:01:25.586Z,7.30
2018-12-04T08:03:54.018Z,7.30
2018-12-04T08:06:22.485Z,7.30
2018-12-04T08:08:50.914Z,7.20
2018-12-04T08:11:19.438Z,7.20
2018-12-04T08:13:47.878Z,7.20
2018-12-04T08:16:16.307Z,7.20
2018-12-04T08:18:44.754Z,7.20
2018-12-04T08:21:13.178Z,7.20
2018-12-04T08:23:41.630Z,7.30
2018-12-04T08:26:10.054Z,7.20
2018-12-04T08:28:38.510Z,7.20
2018-12-04T08:31:06.954Z,7.20
2018-12-04T08:33:35.401Z,7.20
2018-12-04T08:36:03.861Z,7.20
2018-12-04T08:38:32.310Z,7.20
2018-12-04T08:41:00.751Z,7.20
2018-12-04T08:43:29.215Z,7.30
2018-12-04T08:45:57.649Z,7.40
2018-12-04T08:48:26.114Z,7.60
2018-12-04T08:50:54.545Z,7.70
2018-12-04T08:53:23.005Z,7.90
2018-12-04T08:55:51.444Z,8.10
2018-12-04T08:58:19.891Z,8.60
2018-12-04T09:00:48.334Z,9.40
2018-12-04T09:03:16.794Z,10.10
2018-12-04T09:05:45.241Z,10.40
2018-12-04T09:08:13.772Z,10.80
2018-12-04T09:10:42.243Z,12.00
2018-12-04T09:13:10.721Z,13.40
2018-12-04T09:15:39.171Z,13.90
2018-12-04T09:18:07.614Z,14.20
2018-12-04T09:20:36.103Z,14.60
2018-12-04T09:23:04.615Z,15.20
2018-12-04T09:25:33.083Z,15.10
2018-12-04T09:28:01.551Z,15.40
2018-12-04T09:30:30.031Z,15.20
2018-12-04T09:32:58.465Z,14.70
2018-12-04T09:35:26.930Z,13.50
2018-12-04T09:37:55.370Z,12.70
2018-12-04T09:40:23.821Z,11.70
2018-12-04T09:42:52.298Z,10.50
2018-12-04T09:45:20.754Z,10.00
2018-12-04T09:47:49.261Z,9.90
2018-12-04T09:50:17.730Z,10.10
2018-12-04T09:52:46.166Z,10.50
2018-12-04T09:55:14.634Z,10.10
2018-12-04T09:57:43.074Z,10.00
2018-12-04T10:00:11.558Z,9.80
2018-12-04T10:02:39.994Z,9.50
2018-12-04T10:05:08.494Z,9.50
2018-12-04T10:07:36.985Z,9.50
2018-12-04T10:10:06.763Z,9.50
2018-12-04T10:12:35.218Z,9.60
2018-12-04T10:15:03.766Z,9.70
2018-12-04T10:17:32.257Z,10.00
2018-12-04T10:20:00.762Z,10.10
2018-12-04T10:22:29.214Z,10.30
2018-12-04T10:24:57.731Z,11.20
2018-12-04T10:27:26.186Z,11.60
2018-12-04T10:29:54.630Z,11.40
2018-12-04T10:32:23.092Z,10.90
2018-12-04T10:34:51.550Z,10.40
2018-12-04T10:37:20.031Z,10.30
2018-12-04T10:39:48.459Z,9.90
2018-12-04T10:42:16.920Z,9.70
2018-12-04T10:44:45.437Z,9.50
2018-12-04T10:47:13.947Z,9.50
2018-12-04T10:49:42.399Z,9.30
2018-12-04T10:52:10.862Z,9.10
2018-12-04T10:54:40.005Z,9.10
2018-12-04T10:57:09.914Z,9.10
2018-12-04T10:59:37.173Z,9.10
2018-12-04T11:02:11.098Z,9.20
2018-12-04T11:04:39.867Z,9.30
2018-12-04T11:07:43.912Z,9.20
2018-12-04T11:10:12.494Z,9.10
2018-12-04T11:12:40.950Z,9.00
2018-12-04T11:15:09.390Z,8.80
2018-12-04T11:17:37.842Z,8.70
2018-12-04T11:20:08.757Z,8.60
2018-12-04T11:22:37.271Z,8.60
2018-12-04T11:25:07.650Z,8.50
2018-12-04T11:27:36.100Z,8.60
2018-12-04T11:30:05.958Z,8.60
2018-12-04T11:32:34.395Z,8.70
2018-12-04T11:35:02.819Z,8.70
2018-12-04T11:37:31.258Z,8.80
2018-12-04T11:39:59.719Z,8.80
2018-12-04T11:42:31.142Z,8.70
2018-12-04T11:45:00.131Z,8.80
2018-12-04T11:47:28.839Z,8.90
2018-12-04T11:49:57.382Z,9.10
2018-12-04T11:52:25.857Z,9.10
2018-12-04T11:54:54.305Z,9.10
2018-12-04T11:57:22.991Z,8.90
2018-12-04T11:59:51.510Z,8.90
2018-12-04T12:02:19.937Z,9.00
2018-12-04T12:04:48.375Z,9.00
2018-12-04T12:07:20.517Z,9.00
2018-12-04T12:09:47.522Z,8.90
2018-12-04T12:12:15.990Z,8.90
2018-12-04T12:14:44.448Z,9.00
2018-12-04T12:17:12.870Z,9.00
2018-12-04T12:19:41.307Z,9.00
2018-12-04T12:22:09.734Z,9.10
2018-12-04T12:24:38.166Z,9.00
2018-12-04T12:27:06.602Z,9.00
2018-12-04T12:29:35.046Z,8.80
2018-12-04T12:32:03.474Z,8.80
2018-12-04T12:34:31.905Z,8.80
2018-12-04T12:37:00.326Z,8.90
2018-12-04T12:39:28.771Z,8.80
2018-12-04T12:41:57.359Z,8.70
2018-12-04T12:44:25.802Z,8.60
2018-12-04T12:46:54.273Z,8.40
2018-12-04T12:49:22.766Z,8.20
2018-12-04T12:51:51.266Z,8.10
2018-12-04T12:54:19.706Z,8.10
2018-12-04T12:56:48.136Z,8.00
2018-12-04T12:59:16.790Z,8.00
2018-12-04T13:01:45.215Z,8.00
2018-12-04T13:04:13.646Z,8.00
2018-12-04T13:06:42.070Z,8.00
2018-12-04T13:09:10.694Z,7.90
2018-12-04T13:11:39.144Z,7.90
2018-12-04T13:14:07.597Z,8.00
2018-12-04T13:16:36.020Z,7.90
2018-12-04T13:19:05.907Z,7.90
2018-12-04T13:21:34.561Z,7.80
2018-12-04T13:24:02.996Z,7.80
2018-12-04T13:26:31.456Z,7.80
2018-12-04T13:28:59.962Z,7.80
2018-12-04T13:31:28.407Z,7.80
2018-12-04T13:33:56.826Z,7.80
2018-12-04T13:36:25.300Z,7.70
2018-12-04T13:38:53.803Z,7.70
2018-12-04T13:41:22.336Z,7.70
2018-12-04T13:43:50.779Z,7.70
2018-12-04T13:46:19.231Z,7.60
2018-12-04T13:48:47.695Z,7.60
2018-12-04T13:51:16.259Z,7.50
2018-12-04T13:53:44.693Z,7.40
2018-12-04T13:56:13.134Z,7.30
2018-12-04T13:58:41.557Z,7.30
2018-12-04T14:01:10.167Z,7.20
2018-12-04T14:03:38.715Z,7.20
2018-12-04T14:06:07.162Z,7.10
2018-12-04T14:08:35.781Z,7.10
2018-12-04T14:11:04.263Z,7.00
2018-12-04T14:13:32.797Z,6.90
2018-12-04T14:16:01.249Z,6.80
2018-12-04T14:18:29.665Z,6.70
2018-12-04T14:20:58.098Z,6.60
2018-12-04T14:23:26.534Z,6.60
2018-12-04T14:25:54.991Z,6.60
2018-12-04T14:28:23.432Z,6.50
2018-12-04T14:30:51.908Z,6.40
2018-12-04T14:33:20.454Z,6.30
2018-12-04T14:35:48.993Z,6.10
2018-12-04T14:38:17.422Z,6.10
2018-12-04T14:40:45.839Z,6.00
2018-12-04T14:43:14.290Z,6.00
2018-12-04T14:45:42.746Z,5.90
2018-12-04T14:48:11.349Z,5.80
2018-12-04T14:50:39.778Z,5.70
2018-12-04T14:53:08.256Z,5.60
2018-12-04T14:55:36.766Z,5.50
2018-12-04T14:58:05.339Z,5.40
2018-12-04T15:00:33.904Z,5.30
2018-12-04T15:03:02.500Z,5.20
2018-12-04T15:05:31.019Z,5.10
2018-12-04T15:07:59.473Z,5.00
2018-12-04T15:10:27.917Z,5.00
2018-12-04T15:12:56.488Z,4.90
2018-12-04T15:15:25.035Z,4.80
2018-12-04T15:17:53.643Z,4.80
2018-12-04T15:20:22.192Z,4.70
2018-12-04T15:22:50.754Z,4.70
2018-12-04T15:25:19.303Z,4.60
2018-12-04T15:27:48.691Z,4.60
2018-12-04T15:30:17.245Z,4.50
2018-12-04T15:32:45.702Z,4.50
2018-12-04T15:35:14.168Z,4.40
2018-12-04T15:37:42.694Z,4.30
2018-12-04T15:40:11.265Z,4.10
2018-12-04T15:42:39.959Z,4.10
2018-12-04T15:45:08.674Z,3.90
2018-12-04T15:47:37.182Z,3.80
2018-12-04T15:50:06.870Z,3.70
2018-12-04T15:52:35.333Z,3.60
2018-12-04T15:55:04.143Z,3.50
2018-12-04T15:57:32.670Z,3.50
2018-12-04T16:00:01.095Z,3.40
2018-12-04T16:02:29.516Z,3.40
2018-12-04T16:04:57.950Z,3.30
2018-12-04T16:07:26.378Z,3.20
2018-12-04T16:09:54.826Z,3.20
2018-12-04T16:12:23.240Z,3.10
2018-12-04T16:14:51.690Z,3.10
2018-12-04T16:17:20.112Z,3.10
2018-12-04T16:19:48.810Z,3.00
2018-12-04T16:22:17.277Z,3.00
2018-12-04T16:24:45.720Z,2.90
2018-12-04T16:27:14.139Z,2.90
2018-12-04T16:29:42.582Z,2.90
2018-12-04T16:32:10.998Z,2.90
2018-12-04T16:34:40.939Z,2.90
2018-12-04T16:37:09.584Z,2.80
2018-12-04T16:39:38.046Z,2.70
2018-12-04T16:42:06.467Z,2.60
2018-12-04T16:44:34.906Z,2.50
2018-12-04T16:47:03.341Z,2.40
2018-12-04T16:49:31.806Z,2.40
2018-12-04T16:52:00.309Z,2.40
2018-12-04T16:54:28.750Z,2.30
2018-12-04T16:56:57.169Z,2.30
2018-12-04T16:59:25.630Z,2.20
2018-12-04T17:01:54.053Z,2.20
2018-12-04T17:04:22.495Z,2.20
2018-12-04T17:06:50.922Z,2.20
2018-12-04T17:09:19.365Z,2.10
2018-12-04T17:11:47.789Z,2.00
2018-12-04T17:14:16.226Z,2.00
2018-12-04T17:16:44.674Z,1.90
2018-12-04T17:19:14.051Z,1.90
2018-12-04T17:21:42.494Z,2.00
2018-12-04T17:24:10.918Z,1.90
2018-12-04T17:26:39.641Z,1.90
2018-12-04T17:29:08.092Z,1.80
2018-12-04T17:31:36.637Z,1.70
2018-12-04T17:34:05.066Z,1.70
2018-12-04T17:36:33.533Z,1.60
2018-12-04T17:39:02.267Z,1.50
2018-12-04T17:41:30.783Z,1.50
2018-12-04T17:43:59.201Z,1.50
2018-12-04T17:46:27.647Z,1.50
2018-12-04T17:48:56.094Z,1.40
2018-12-04T17:51:24.538Z,1.30
2018-12-04T17:53:53.026Z,1.30
2018-12-04T17:56:21.466Z,1.30
2018-12-04T17:58:49.885Z,1.40
2018-12-04T18:01:18.322Z,1.40
2018-12-04T18:03:46.766Z,1.40
2018-12-04T18:06:15.225Z,1.40
2018-12-04T18:08:44.084Z,1.50
2018-12-04T18:11:12.674Z,1.50
2018-12-04T18:13:41.099Z,1.30
2018-12-04T18:16:09.538Z,1.20
2018-12-04T18:18:38.002Z,1.10
2018-12-04T18:21:06.578Z,1.00
2018-12-04T18:23:35.007Z,0.90
2018-12-04T18:26:03.491Z,0.90
2018-12-04T18:28:31.955Z,0.90
2018-12-04T18:31:00.458Z,0.80
2018-12-04T18:33:28.944Z,0.80
2018-12-04T18:35:57.361Z,0.80
2018-12-04T18:38:25.819Z,0.90
2018-12-04T18:40:54.250Z,0.90
2018-12-04T18:43:22.695Z,0.90
2018-12-04T18:45:51.134Z,1.00
2018-12-04T18:48:19.604Z,0.90
2018-12-04T18:50:48.042Z,0.90
2018-12-04T18:53:16.481Z,0.90
2018-12-04T18:55:44.965Z,0.90
2018-12-04T18:58:13.410Z,0.80
2018-12-04T19:00:41.942Z,0.80
2018-12-04T19:03:10.386Z,0.70
2018-12-04T19:05:38.941Z,0.70
2018-12-04T19:08:07.585Z,0.70
2018-12-04T19:10:36.013Z,0.60
2018-12-04T19:13:04.454Z,0.60
2018-12-04T19:15:32.878Z,0.60
2018-12-04T19:18:01.318Z,0.60
2018-12-04T19:20:29.745Z,0.60
2018-12-04T19:22:58.194Z,0.50
2018-12-04T19:25:26.822Z,0.50
2018-12-04T19:27:55.306Z,0.50
2018-12-04T19:30:23.734Z,0.40
2018-12-04T19:32:52.177Z,0.40
2018-12-04T19:35:20.650Z,0.40
2018-12-04T19:37:49.089Z,0.30
2018-12-04T19:40:17.524Z,0.30
2018-12-04T19:42:46.001Z,0.30
2018-12-04T19:45:14.486Z,0.20
2018-12-04T19:47:43.065Z,0.20
2018-12-04T19:50:11.659Z,0.20
2018-12-04T19:52:40.427Z,0.20
2018-12-04T19:55:08.934Z,0.20
2018-12-04T19:57:37.380Z,0.20
2018-12-04T20:00:07.711Z,0.20
2018-12-04T20:02:36.153Z,0.10
2018-12-04T20:05:04.891Z,0.00
2018-12-04T20:07:33.889Z,0.00
2018-12-04T20:10:02.410Z,-0.10
2018-12-04T20:12:30.900Z,-0.10
2018-12-04T20:15:00.035Z,0.00
2018-12-04T20:17:29.127Z,0.00
2018-12-04T20:19:58.329Z,0.00
2018-12-04T20:22:27.214Z,0.00
2018-12-04T20:24:56.215Z,-0.10
2018-12-04T20:27:25.300Z,-0.10
2018-12-04T20:29:54.155Z,-0.10
2018-12-04T20:32:23.089Z,-0.20
2018-12-04T20:34:51.787Z,-0.20
2018-12-04T20:37:20.856Z,-0.20
2018-12-04T20:39:49.556Z,-0.20
2018-12-04T20:42:23.276Z,-0.20
2018-12-04T20:44:49.098Z,-0.20
2018-12-04T20:47:17.780Z,-0.20
2018-12-04T20:49:47.785Z,-0.30
2018-12-04T20:52:18.438Z,-0.30
2018-12-04T20:54:49.205Z,-0.40
2018-12-04T20:57:18.833Z,-0.50
2018-12-04T20:59:47.382Z,-0.50
2018-12-04T21:02:16.265Z,-0.50
2018-12-04T21:04:44.741Z,-0.50
2018-12-04T21:07:13.236Z,-0.50
2018-12-04T21:09:41.907Z,-0.50
2018-12-04T21:12:10.753Z,-0.50
2018-12-04T21:14:40.218Z,-0.40
2018-12-04T21:17:08.915Z,-0.50
2018-12-04T21:19:37.642Z,-0.50
2018-12-04T21:22:06.385Z,-0.60
2018-12-04T21:24:35.783Z,-0.60
2018-12-04T21:27:11.723Z,-0.70
2018-12-04T21:29:42.554Z,-0.70
2018-12-04T21:32:18.263Z,-0.80
2018-12-04T21:34:52.062Z,-0.80
2018-12-04T21:37:25.866Z,-0.80
2018-12-04T21:40:57.466Z,-0.70
2018-12-04T21:43:31.351Z,-0.70
2018-12-04T21:46:05.552Z,-0.70
2018-12-04T21:48:35.447Z,-0.70
2018-12-04T21:51:04.363Z,-0.70
2018-12-04T21:53:33.436Z,-0.80
2018-12-04T21:56:01.926Z,-0.80
2018-12-04T21:58:30.392Z,-0.80
2018-12-04T22:00:58.963Z,-0.80
2018-12-04T22:03:27.928Z,-0.90
2018-12-04T22:05:56.430Z,-0.90
2018-12-04T22:08:24.873Z,-0.80
2018-12-04T22:10:53.453Z,-0.80
2018-12-04T22:13:21.903Z,-0.80
2018-12-04T22:15:50.362Z,-0.90
2018-12-04T22:18:18.795Z,-0.90
2018-12-04T22:20:47.249Z,-1.00
2018-12-04T22:23:15.669Z,-1.10
2018-12-04T22:25:44.091Z,-1.20
2018-12-04T22:28:12.539Z,-1.20
2018-12-04T22:30:40.962Z,-1.20
2018-12-04T22:33:09.415Z,-1.10
2018-12-04T22:35:37.845Z,-1.20
2018-12-04T22:38:06.290Z,-1.10
2018-12-04T22:40:34.718Z,-1.10
2018-12-04T22:43:03.315Z,-1.00
2018-12-04T22:45:31.743Z,-1.00
2018-12-04T22:48:00.209Z,-1.00
2018-12-04T22:50:28.626Z,-1.00
2018-12-04T22:52:57.069Z,-0.90
2018-12-04T22:55:25.534Z,-1.00
2018-12-04T22:57:53.986Z,-1.00
2018-12-04T23:00:47.262Z,-1.00
2018-12-04T23:03:15.706Z,-1.00
2018-12-04T23:05:44.130Z,-1.10
2018-12-04T23:08:12.572Z,-1.20
2018-12-04T23:10:41.046Z,-1.30
2018-12-04T23:13:09.502Z,-1.20
2018-12-04T23:15:38.082Z,-1.30
2018-12-04T23:18:06.782Z,-1.30
2018-12-04T23:20:35.210Z,-1.20
2018-12-04T23:23:04.000Z,-1.20
2018-12-04T23:25:32.428Z,-1.20
2018-12-04T23:28:00.873Z,-1.20
2018-12-04T23:30:29.294Z,-1.10
2018-12-04T23:32:57.747Z,-1.10
2018-12-04T23:35:26.170Z,-1.10
2018-12-04T23:37:54.610Z,-1.10
2018-12-04T23:40:23.035Z,-1.10
2018-12-04T23:42:51.486Z,-1.10
2018-12-04T23:45:19.909Z,-1.20
2018-12-04T23:47:48.379Z,-1.20
2018-12-04T23:50:16.830Z,-1.20
2018-12-04T23:52:45.395Z,-1.20
2018-12-04T23:55:13.830Z,-1.20
2018-12-04T23:57:42.285Z,-1.30
